MOL Garland — CQHO — position and weather

sailwx.info

Track history (hours):
 
Tides and Currents Weather Stations Pressure Air Temp Water Temp Dewpoint Dewpoint Depression Visibility Wind Speed Wind Dir Waves Ship Positions

MOL Garland

Last reported at 2017-Nov-17 22:40 UTC. Time now 2017-Nov-18 02:55 UTC.
Position N 32°44' W 079°50'.

Length 275 m; draft 11.7 m.

Type: Ship. MMSI: 255805590.

Date/timePositionNaut miles runAvg speedWind from/ knotsBaromVisibWave heightAir tempDewpointWater temp
2017-Nov-17 22:40N 32°44' W 079°50'213.8
2017-Nov-17 22:30N 32°43' W 079°48'166 4.5
2017-Nov-16 09:57N 30°24' W 081°34'103 2.6
2017-Nov-14 17:54N 31°46' W 080°22'5 9.1
2017-Nov-14 17:24N 31°49' W 080°25'4 9.4
2017-Nov-14 17:00N 31°51' W 080°29'5 9.5
2017-Nov-14 16:29N 31°53' W 080°34'4 8.9
2017-Nov-14 16:00N 31°55' W 080°39'5 9.5
2017-Nov-14 15:30N 31°58' W 080°44'713.5
2017-Nov-14 15:00N 32°02' W 080°50'612.7
2017-Nov-14 14:30N 32°04' W 080°57'510.3
2017-Nov-14 14:00N 32°05' W 081°03'4 7.2
2017-Nov-14 13:30N 32°06' W 081°07'2 3.0
2017-Nov-14 12:53N 32°08' W 081°08'0 0.0
2017-Nov-14 12:29N 32°08' W 081°08'0 0.0
2017-Nov-14 11:41N 32°08' W 081°08'0 0.0
2017-Nov-14 10:47N 32°08' W 081°08'0 0.0
2017-Nov-14 10:29N 32°08' W 081°08'0 0.0
2017-Nov-14 09:59N 32°08' W 081°08'0 0.0
2017-Nov-14 09:23N 32°08' W 081°08'0 0.0
2017-Nov-14 08:59N 32°08' W 081°08'0 0.0
2017-Nov-14 08:29N 32°08' W 081°08'0 0.0
2017-Nov-14 07:59N 32°08' W 081°08'0 0.0
2017-Nov-14 07:29N 32°08' W 081°08'0 0.0
2017-Nov-14 06:59N 32°08' W 081°08'0 0.0
2017-Nov-14 06:27N 32°08' W 081°08'0 0.0
2017-Nov-14 06:00N 32°08' W 081°08'0 0.0
2017-Nov-14 05:12N 32°08' W 081°08'0 0.0
2017-Nov-14 04:54N 32°08' W 081°08'0 0.0
2017-Nov-14 04:30N 32°08' W 081°08'0 0.0
2017-Nov-14 04:00N 32°08' W 081°08'0 0.0
2017-Nov-14 03:14N 32°08' W 081°08'0 0.0
2017-Nov-14 02:50N 32°08' W 081°08'0 0.0
2017-Nov-14 02:20N 32°08' W 081°08'0 0.0
2017-Nov-14 01:26N 32°08' W 081°08'0 0.0
2017-Nov-14 00:55N 32°08' W 081°08'0 0.0
2017-Nov-14 00:25N 32°08' W 081°08'0 0.0
2017-Nov-13 23:55N 32°08' W 081°08'0 0.0
2017-Nov-13 23:28N 32°08' W 081°08'0 0.0
2017-Nov-13 22:57N 32°08' W 081°08'0 0.8
2017-Nov-13 22:28N 32°08' W 081°08'2 3.9
2017-Nov-13 22:00N 32°06' W 081°07'  
Track history (hours):
 
Tides and Currents Weather Stations Pressure Air Temp Water Temp Dewpoint Dewpoint Depression Visibility Wind Speed Wind Dir Waves Ship Positions

MOL Garland

Last reported at 2017-Nov-17 22:40 UTC. Time now 2017-Nov-18 02:55 UTC.
Position N 32°44' W 079°50'.

Length 275 m; draft 11.7 m.

Type: Ship. MMSI: 255805590.

Date/timePositionNaut miles runAvg speedWind from/ knotsBaromVisibWave heightAir tempDewpointWater temp
2017-Nov-17 22:40N 32°44' W 079°50'213.8
2017-Nov-17 22:30N 32°43' W 079°48'166 4.5
2017-Nov-16 09:57N 30°24' W 081°34'103 2.6
2017-Nov-14 17:54N 31°46' W 080°22'5 9.1
2017-Nov-14 17:24N 31°49' W 080°25'4 9.4
2017-Nov-14 17:00N 31°51' W 080°29'5 9.5
2017-Nov-14 16:29N 31°53' W 080°34'4 8.9
2017-Nov-14 16:00N 31°55' W 080°39'5 9.5
2017-Nov-14 15:30N 31°58' W 080°44'713.5
2017-Nov-14 15:00N 32°02' W 080°50'612.7
2017-Nov-14 14:30N 32°04' W 080°57'510.3
2017-Nov-14 14:00N 32°05' W 081°03'4 7.2
2017-Nov-14 13:30N 32°06' W 081°07'2 3.0
2017-Nov-14 12:53N 32°08' W 081°08'0 0.0
2017-Nov-14 12:29N 32°08' W 081°08'0 0.0
2017-Nov-14 11:41N 32°08' W 081°08'0 0.0
2017-Nov-14 10:47N 32°08' W 081°08'0 0.0
2017-Nov-14 10:29N 32°08' W 081°08'0 0.0
2017-Nov-14 09:59N 32°08' W 081°08'0 0.0
2017-Nov-14 09:23N 32°08' W 081°08'0 0.0
2017-Nov-14 08:59N 32°08' W 081°08'0 0.0
2017-Nov-14 08:29N 32°08' W 081°08'0 0.0
2017-Nov-14 07:59N 32°08' W 081°08'0 0.0
2017-Nov-14 07:29N 32°08' W 081°08'0 0.0
2017-Nov-14 06:59N 32°08' W 081°08'0 0.0
2017-Nov-14 06:27N 32°08' W 081°08'0 0.0
2017-Nov-14 06:00N 32°08' W 081°08'0 0.0
2017-Nov-14 05:12N 32°08' W 081°08'0 0.0
2017-Nov-14 04:54N 32°08' W 081°08'0 0.0
2017-Nov-14 04:30N 32°08' W 081°08'0 0.0
2017-Nov-14 04:00N 32°08' W 081°08'0 0.0
2017-Nov-14 03:14N 32°08' W 081°08'0 0.0
2017-Nov-14 02:50N 32°08' W 081°08'0 0.0
2017-Nov-14 02:20N 32°08' W 081°08'0 0.0
2017-Nov-14 01:26N 32°08' W 081°08'0 0.0
2017-Nov-14 00:55N 32°08' W 081°08'0 0.0
2017-Nov-14 00:25N 32°08' W 081°08'0 0.0
2017-Nov-13 23:55N 32°08' W 081°08'0 0.0
2017-Nov-13 23:28N 32°08' W 081°08'0 0.0
2017-Nov-13 22:57N 32°08' W 081°08'0 0.8
2017-Nov-13 22:28N 32°08' W 081°08'2 3.9
2017-Nov-13 22:00N 32°06' W 081°07'  

Dump ship's entire track history